Time;durP1;ratioP1;P1;durP2;ratioP2;P2;SDS_P1;SDS_P2;PMS_P1;PMS_P2;Temp;Humidity;BMP_temperature;BMP_pressure;BME280_temperature;BME280_humidity;BME280_pressure;Samples;Min_cycle;Max_cycle;Signal;HPM_P1;HPM_P2
2023/08/27 00:00:28;;;;;;;4.03;2.60;;;14.80;99.90;;;;;;5051673;28;20052;-35
2023/08/27 00:02:54;;;;;;;4.57;2.70;;;14.80;99.90;;;;;;5061276;28;20063;-35
2023/08/27 00:05:20;;;;;;;3.47;2.45;;;14.80;99.90;;;;;;5050328;28;20059;-35
2023/08/27 00:07:45;;;;;;;4.43;2.75;;;14.80;99.90;;;;;;5060363;28;20133;-35
2023/08/27 00:10:12;;;;;;;3.60;2.75;;;14.80;99.90;;;;;;5048608;28;20075;-35
2023/08/27 00:12:38;;;;;;;3.60;2.70;;;14.80;99.90;;;;;;5054719;28;20171;-35
2023/08/27 00:15:05;;;;;;;4.00;2.90;;;14.70;99.90;;;;;;5057388;28;20738;-35
2023/08/27 00:17:30;;;;;;;4.68;3.10;;;14.70;99.90;;;;;;5060250;28;20563;-35
2023/08/27 00:19:57;;;;;;;3.20;2.60;;;14.70;99.90;;;;;;5051136;28;20041;-35
2023/08/27 00:22:22;;;;;;;3.30;2.60;;;14.60;99.90;;;;;;5056225;28;20057;-35
2023/08/27 00:24:48;;;;;;;3.33;2.50;;;14.60;99.90;;;;;;5050045;28;20049;-35
2023/08/27 00:27:14;;;;;;;3.33;2.75;;;14.60;99.90;;;;;;5048596;28;20059;-36
2023/08/27 00:29:40;;;;;;;3.97;3.17;;;14.60;99.90;;;;;;5057234;28;20041;-35
2023/08/27 00:32:06;;;;;;;4.47;3.10;;;14.60;99.90;;;;;;5050841;28;20113;-35
2023/08/27 00:34:33;;;;;;;4.45;3.00;;;14.60;99.90;;;;;;5068549;28;20494;-35
2023/08/27 00:37:00;;;;;;;3.92;3.00;;;14.60;99.90;;;;;;5043304;28;20111;-35
2023/08/27 00:39:26;;;;;;;4.40;2.97;;;14.60;99.90;;;;;;5066343;28;20517;-35
2023/08/27 00:41:52;;;;;;;3.35;2.42;;;14.50;99.90;;;;;;5065176;28;20170;-35
2023/08/27 00:44:20;;;;;;;5.07;2.95;;;14.50;99.90;;;;;;5027383;28;20069;-35
2023/08/27 00:46:49;;;;;;;4.57;3.28;;;14.50;99.90;;;;;;5059286;28;20041;-35
2023/08/27 00:49:16;;;;;;;4.47;3.17;;;14.50;99.90;;;;;;5057215;28;20082;-35
2023/08/27 00:51:46;;;;;;;3.70;2.60;;;14.50;99.90;;;;;;5064385;28;20118;-36
2023/08/27 00:54:12;;;;;;;4.88;3.33;;;14.50;99.90;;;;;;5061020;28;20060;-35
2023/08/27 00:56:41;;;;;;;4.65;2.92;;;14.50;99.90;;;;;;5052262;28;20053;-35
2023/08/27 00:59:07;;;;;;;3.70;3.10;;;14.50;99.90;;;;;;5058342;28;20060;-35
2023/08/27 01:01:32;;;;;;;4.65;3.55;;;14.50;99.90;;;;;;5058226;28;20418;-36
2023/08/27 01:03:58;;;;;;;5.47;3.58;;;14.50;99.90;;;;;;5059354;28;20048;-35
2023/08/27 01:06:24;;;;;;;4.75;3.50;;;14.50;99.90;;;;;;5057346;28;20169;-35
2023/08/27 01:09:12;;;;;;;4.32;2.70;;;14.50;99.90;;;;;;5046636;28;20429;-35
2023/08/27 01:12:03;;;;;;;5.45;3.47;;;14.50;99.90;;;;;;5062071;28;20075;-35
2023/08/27 01:14:33;;;;;;;4.13;2.78;;;14.50;99.90;;;;;;5055852;28;20477;-36
2023/08/27 01:17:02;;;;;;;4.57;2.80;;;14.50;99.90;;;;;;5057354;28;20486;-35
2023/08/27 01:19:30;;;;;;;4.30;2.80;;;14.50;99.90;;;;;;5058434;28;20393;-44
2023/08/27 01:21:55;;;;;;;4.75;3.10;;;14.50;99.90;;;;;;5059126;28;20155;-34
2023/08/27 01:24:21;;;;;;;5.72;3.35;;;14.50;99.90;;;;;;5058565;28;20785;-35
2023/08/27 01:26:52;;;;;;;7.97;2.80;;;14.50;99.90;;;;;;5050530;28;20054;-35
2023/08/27 01:29:36;;;;;;;5.13;3.67;;;14.50;99.90;;;;;;5048588;28;20059;-35
2023/08/27 01:32:10;;;;;;;3.67;2.78;;;14.50;99.90;;;;;;5066241;28;20051;-35
2023/08/27 01:34:39;;;;;;;6.13;3.30;;;14.50;99.90;;;;;;5066209;28;20060;-35
2023/08/27 01:37:05;;;;;;;4.68;3.78;;;14.50;99.90;;;;;;5064666;28;20052;-35
2023/08/27 01:39:31;;;;;;;5.53;3.05;;;14.50;99.90;;;;;;5068082;28;20058;-35
2023/08/27 01:41:56;;;;;;;6.88;3.40;;;14.50;99.90;;;;;;5049251;28;20048;-35
2023/08/27 01:44:22;;;;;;;3.50;2.70;;;14.50;99.90;;;;;;5057492;28;20504;-35
2023/08/27 01:46:48;;;;;;;3.80;2.75;;;14.40;99.90;;;;;;5076045;28;20517;-35
2023/08/27 01:49:13;;;;;;;4.25;3.22;;;14.40;99.90;;;;;;5062099;28;20481;-35
2023/08/27 01:51:39;;;;;;;3.80;2.83;;;14.40;99.90;;;;;;5064215;28;20194;-37
2023/08/27 01:54:05;;;;;;;3.25;2.45;;;14.40;99.90;;;;;;5060170;28;20101;-35
2023/08/27 01:56:31;;;;;;;3.10;2.20;;;14.40;99.90;;;;;;5057818;28;20044;-36
2023/08/27 01:58:57;;;;;;;4.43;3.08;;;14.40;99.90;;;;;;5062193;28;20051;-35
2023/08/27 02:01:22;;;;;;;4.40;2.97;;;14.40;99.90;;;;;;5061092;28;20473;-35
2023/08/27 02:03:48;;;;;;;6.63;3.22;;;14.40;99.90;;;;;;5063652;28;20148;-35
2023/08/27 02:06:13;;;;;;;5.45;2.95;;;14.40;99.90;;;;;;5064875;28;20044;-35
2023/08/27 02:08:39;;;;;;;4.82;3.50;;;14.40;99.90;;;;;;5064223;28;20060;-35
2023/08/27 02:11:05;;;;;;;5.28;2.92;;;14.40;99.90;;;;;;5051518;28;20052;-35
2023/08/27 02:13:30;;;;;;;5.07;3.83;;;14.40;99.90;;;;;;5060460;28;20088;-35
2023/08/27 02:16:00;;;;;;;3.45;2.58;;;14.40;99.90;;;;;;5063197;28;20470;-35
2023/08/27 02:18:25;;;;;;;5.32;3.38;;;14.40;99.90;;;;;;5048493;28;20080;-35
2023/08/27 02:20:51;;;;;;;5.95;3.33;;;14.40;99.90;;;;;;5058882;28;20060;-36
2023/08/27 02:23:17;;;;;;;6.63;4.00;;;14.40;99.90;;;;;;5049989;28;20479;-36
2023/08/27 02:25:42;;;;;;;6.15;3.70;;;14.40;99.90;;;;;;5044062;28;20051;-36
2023/08/27 02:28:08;;;;;;;4.53;3.40;;;14.40;99.90;;;;;;5038032;28;20045;-36
2023/08/27 02:30:34;;;;;;;5.03;3.58;;;14.50;99.90;;;;;;5058086;28;20470;-35
2023/08/27 02:33:00;;;;;;;4.75;3.55;;;14.50;99.90;;;;;;5057826;28;20060;-36
2023/08/27 02:35:25;;;;;;;5.40;3.72;;;14.40;99.90;;;;;;5056925;28;20052;-35
2023/08/27 02:37:51;;;;;;;4.18;3.38;;;14.40;99.90;;;;;;5056620;28;20071;-36
2023/08/27 02:40:17;;;;;;;4.35;3.65;;;14.40;99.90;;;;;;5057247;28;20067;-36
2023/08/27 02:42:43;;;;;;;5.22;3.88;;;14.40;99.90;;;;;;5054006;28;20059;-36
2023/08/27 02:45:09;;;;;;;5.22;3.88;;;14.40;99.90;;;;;;5057195;28;20052;-36
2023/08/27 02:47:35;;;;;;;5.70;3.53;;;14.40;99.90;;;;;;5050081;28;20056;-36
2023/08/27 02:50:01;;;;;;;5.50;3.47;;;14.40;99.90;;;;;;5061399;28;20105;-36
2023/08/27 02:52:26;;;;;;;6.07;3.28;;;14.40;99.90;;;;;;5056236;28;20469;-36
2023/08/27 02:54:52;;;;;;;4.75;3.50;;;14.30;99.90;;;;;;5064515;28;20778;-36
2023/08/27 02:57:17;;;;;;;4.72;3.50;;;14.40;99.90;;;;;;5057756;28;20052;-36
2023/08/27 02:59:43;;;;;;;4.35;3.28;;;14.40;99.90;;;;;;5057010;28;20502;-37
2023/08/27 03:02:09;;;;;;;5.03;3.42;;;14.40;99.90;;;;;;5053863;28;20049;-37
2023/08/27 03:04:36;;;;;;;5.10;3.08;;;14.40;99.90;;;;;;5042230;28;20057;-36
2023/08/27 03:07:02;;;;;;;5.28;3.78;;;14.40;99.90;;;;;;5059201;28;20144;-37
2023/08/27 03:09:27;;;;;;;5.10;3.25;;;14.40;99.90;;;;;;5049215;28;20500;-36
2023/08/27 03:11:53;;;;;;;5.43;3.28;;;14.40;99.90;;;;;;5065846;28;20048;-35
2023/08/27 03:14:19;;;;;;;5.60;3.70;;;14.40;99.90;;;;;;5055624;28;20118;-35
2023/08/27 03:16:44;;;;;;;4.97;3.30;;;14.40;99.90;;;;;;5062487;28;20040;-35
2023/08/27 03:19:10;;;;;;;6.43;4.10;;;14.40;99.90;;;;;;5062815;28;20044;-35
2023/08/27 03:21:36;;;;;;;6.07;3.50;;;14.40;99.90;;;;;;5061878;28;20084;-35
2023/08/27 03:24:02;;;;;;;4.65;3.70;;;14.40;99.90;;;;;;5060155;28;20405;-35
2023/08/27 03:26:28;;;;;;;6.00;4.00;;;14.40;99.90;;;;;;5055499;28;20090;-35
2023/08/27 03:28:54;;;;;;;6.50;3.42;;;14.40;99.90;;;;;;5062174;28;20498;-36
2023/08/27 03:31:19;;;;;;;4.57;3.45;;;14.40;99.90;;;;;;5062214;28;20067;-36
2023/08/27 03:33:45;;;;;;;5.30;3.42;;;14.40;99.90;;;;;;5049581;28;20765;-37
2023/08/27 03:36:12;;;;;;;4.88;3.85;;;14.40;99.90;;;;;;5054613;28;20071;-36
2023/08/27 03:38:38;;;;;;;6.28;3.75;;;14.30;99.90;;;;;;5062620;28;20032;-36
2023/08/27 03:41:04;;;;;;;6.43;3.97;;;14.30;99.90;;;;;;5052965;28;20074;-35
2023/08/27 03:43:29;;;;;;;5.60;3.42;;;14.30;99.90;;;;;;5062236;28;20101;-35
2023/08/27 03:45:55;;;;;;;5.90;3.80;;;14.30;99.90;;;;;;5067034;28;20053;-35
2023/08/27 03:48:21;;;;;;;5.55;3.90;;;14.30;99.90;;;;;;5067119;28;20057;-35
2023/08/27 03:50:47;;;;;;;4.53;3.63;;;14.20;99.90;;;;;;5060123;28;20071;-34
2023/08/27 03:53:12;;;;;;;4.97;3.60;;;14.20;99.90;;;;;;5068213;28;20048;-35
2023/08/27 03:55:39;;;;;;;5.05;3.85;;;14.20;99.90;;;;;;5057938;28;20084;-35
2023/08/27 03:58:06;;;;;;;4.18;3.40;;;14.20;99.90;;;;;;5061222;28;20053;-35
2023/08/27 04:00:33;;;;;;;4.68;3.03;;;14.20;99.90;;;;;;5060037;28;20075;-35
2023/08/27 04:02:59;;;;;;;6.88;3.50;;;14.20;99.90;;;;;;5068428;28;20790;-34
2023/08/27 04:05:25;;;;;;;5.00;3.15;;;14.10;99.90;;;;;;5062878;28;20836;-35
2023/08/27 04:07:51;;;;;;;4.95;3.78;;;14.10;99.90;;;;;;5067335;28;20056;-36
2023/08/27 04:10:16;;;;;;;4.63;3.03;;;14.10;99.90;;;;;;5065028;28;20426;-35
2023/08/27 04:12:42;;;;;;;6.00;3.38;;;14.00;99.90;;;;;;5066573;28;20044;-41
2023/08/27 04:15:08;;;;;;;4.38;3.22;;;14.00;99.90;;;;;;5073764;28;20125;-35
2023/08/27 04:17:34;;;;;;;5.22;4.00;;;14.00;99.90;;;;;;5066825;28;20490;-35
2023/08/27 04:19:59;;;;;;;3.90;3.13;;;14.00;99.90;;;;;;5060321;28;20083;-35
2023/08/27 04:22:25;;;;;;;5.00;4.00;;;14.00;99.90;;;;;;5042746;28;20048;-35
2023/08/27 04:24:51;;;;;;;4.90;3.25;;;14.00;99.90;;;;;;5061329;28;20068;-36
2023/08/27 04:27:16;;;;;;;4.53;3.60;;;14.00;99.90;;;;;;5041790;28;20049;-36
2023/08/27 04:29:43;;;;;;;5.10;3.85;;;14.00;99.90;;;;;;5059545;28;20060;-35
2023/08/27 04:32:09;;;;;;;5.70;3.92;;;14.00;99.90;;;;;;5063048;28;20114;-35
2023/08/27 04:34:35;;;;;;;6.22;4.13;;;14.00;99.90;;;;;;5043190;28;20053;-35
2023/08/27 04:37:03;;;;;;;7.55;3.72;;;14.00;99.90;;;;;;5060613;28;20052;-35
2023/08/27 04:39:29;;;;;;;4.45;3.45;;;14.00;99.90;;;;;;5053521;28;20052;-35
2023/08/27 04:41:55;;;;;;;6.40;3.67;;;14.00;99.90;;;;;;5051934;28;20048;-35
2023/08/27 04:44:21;;;;;;;4.47;3.45;;;14.00;99.90;;;;;;5061626;28;20074;-35
2023/08/27 04:46:46;;;;;;;5.85;3.72;;;14.00;99.90;;;;;;5061986;28;20135;-35
2023/08/27 04:49:13;;;;;;;6.72;4.00;;;14.00;99.90;;;;;;5069625;28;20048;-42
2023/08/27 04:51:38;;;;;;;5.65;3.45;;;14.00;99.90;;;;;;5066106;28;20040;-35
2023/08/27 04:54:04;;;;;;;5.10;3.42;;;14.00;99.90;;;;;;5064423;28;20414;-35
2023/08/27 04:56:30;;;;;;;4.03;3.17;;;14.00;99.90;;;;;;5066306;28;20063;-35
2023/08/27 04:58:56;;;;;;;4.80;3.17;;;14.10;99.90;;;;;;5068539;28;20181;-36
2023/08/27 05:01:21;;;;;;;4.63;2.90;;;14.10;99.90;;;;;;5064303;28;20056;-35
2023/08/27 05:03:47;;;;;;;5.47;3.17;;;14.10;99.90;;;;;;5069129;28;20052;-36
2023/08/27 05:06:13;;;;;;;4.10;2.78;;;14.10;99.90;;;;;;5064182;28;20048;-36
2023/08/27 05:08:39;;;;;;;6.07;3.33;;;14.10;99.90;;;;;;5065688;28;20087;-36
2023/08/27 05:11:05;;;;;;;4.55;2.88;;;14.20;99.90;;;;;;5062852;28;20478;-35
2023/08/27 05:13:30;;;;;;;3.10;2.22;;;14.20;99.90;;;;;;5067855;28;20045;-37
2023/08/27 05:15:56;;;;;;;6.80;3.00;;;14.20;99.90;;;;;;5069493;28;20064;-35
2023/08/27 05:18:21;;;;;;;4.65;2.80;;;14.20;99.90;;;;;;5058271;28;20105;-36
2023/08/27 05:20:47;;;;;;;3.97;2.67;;;14.20;99.90;;;;;;5059723;28;20060;-35
2023/08/27 05:23:13;;;;;;;5.78;3.15;;;14.30;99.90;;;;;;5064853;28;20050;-36
2023/08/27 05:25:38;;;;;;;5.93;3.33;;;14.30;99.90;;;;;;5058381;28;20064;-36
2023/08/27 05:28:04;;;;;;;6.00;3.42;;;14.20;99.90;;;;;;5064239;28;20096;-36
2023/08/27 05:30:30;;;;;;;6.72;3.22;;;14.30;99.90;;;;;;5067062;28;20057;-36
2023/08/27 05:32:56;;;;;;;5.28;3.00;;;14.20;99.90;;;;;;5065559;28;20510;-36
2023/08/27 05:35:24;;;;;;;4.60;2.80;;;14.30;99.90;;;;;;5063168;28;20173;-36
2023/08/27 05:37:50;;;;;;;5.18;2.40;;;14.20;99.90;;;;;;5064947;28;20056;-36
2023/08/27 05:40:16;;;;;;;5.10;3.35;;;14.30;99.90;;;;;;5060266;28;20071;-36
2023/08/27 05:42:41;;;;;;;4.80;2.80;;;14.30;99.90;;;;;;5057044;28;20714;-36
2023/08/27 05:45:08;;;;;;;5.55;3.08;;;14.20;99.90;;;;;;5068950;28;20052;-37
2023/08/27 05:47:33;;;;;;;4.60;2.40;;;14.20;99.90;;;;;;5067214;28;20074;-36
2023/08/27 05:49:59;;;;;;;4.50;2.67;;;14.30;99.90;;;;;;5066766;28;20442;-37
2023/08/27 05:52:25;;;;;;;4.03;2.38;;;14.20;99.90;;;;;;5064441;28;20052;-36
2023/08/27 05:54:50;;;;;;;6.25;3.05;;;14.20;99.90;;;;;;5056559;28;20040;-36
2023/08/27 05:57:17;;;;;;;6.75;2.65;;;14.20;99.90;;;;;;5059427;28;20060;-36
2023/08/27 05:59:42;;;;;;;5.80;2.47;;;14.30;99.90;;;;;;5064167;28;20456;-36
2023/08/27 06:02:10;;;;;;;5.00;2.20;;;14.30;99.90;;;;;;5062141;28;20044;-36
2023/08/27 06:04:35;;;;;;;6.88;2.35;;;14.30;99.90;;;;;;5062427;28;20056;-36
2023/08/27 06:07:01;;;;;;;5.10;1.70;;;14.30;99.90;;;;;;5063336;28;20062;-37
2023/08/27 06:09:27;;;;;;;4.28;1.95;;;14.30;99.90;;;;;;5063428;28;20143;-36
2023/08/27 06:11:52;;;;;;;6.43;2.03;;;14.40;99.90;;;;;;5058469;28;20056;-36
2023/08/27 06:14:18;;;;;;;3.50;1.83;;;14.40;99.90;;;;;;5066897;28;20537;-36
2023/08/27 06:16:44;;;;;;;5.15;1.40;;;14.40;99.90;;;;;;5058009;28;20422;-36
2023/08/27 06:19:09;;;;;;;4.57;1.80;;;14.40;99.90;;;;;;5063434;28;20113;-37
2023/08/27 06:21:35;;;;;;;3.85;1.63;;;14.40;99.90;;;;;;5057215;28;20059;-37
2023/08/27 06:24:01;;;;;;;4.30;1.75;;;14.40;99.90;;;;;;5057927;28;20453;-36
2023/08/27 06:26:27;;;;;;;3.00;1.90;;;14.40;99.90;;;;;;5058435;28;20636;-36
2023/08/27 06:28:52;;;;;;;2.65;1.65;;;14.40;99.90;;;;;;5059496;28;20498;-36
2023/08/27 06:31:18;;;;;;;6.28;2.15;;;14.40;99.90;;;;;;5061088;28;20075;-36
2023/08/27 06:33:43;;;;;;;4.55;2.17;;;14.40;99.90;;;;;;5060142;28;20056;-35
2023/08/27 06:36:09;;;;;;;8.18;2.10;;;14.50;99.90;;;;;;5056290;28;20117;-36
2023/08/27 06:38:35;;;;;;;4.38;2.03;;;14.50;99.90;;;;;;5042793;28;20377;-37
2023/08/27 06:41:00;;;;;;;4.03;1.98;;;14.50;99.90;;;;;;5057972;28;20056;-37
2023/08/27 06:43:26;;;;;;;3.95;2.30;;;14.50;99.90;;;;;;5058087;28;20048;-37
2023/08/27 06:45:52;;;;;;;4.05;1.90;;;14.50;99.90;;;;;;5053393;28;20056;-36
2023/08/27 06:48:17;;;;;;;4.20;1.73;;;14.40;99.90;;;;;;5061840;28;20048;-37
2023/08/27 06:50:43;;;;;;;3.38;1.70;;;14.40;99.90;;;;;;5056241;28;20053;-37
2023/08/27 06:53:12;;;;;;;3.70;1.90;;;14.40;99.90;;;;;;5054709;28;20064;-37
2023/08/27 06:55:37;;;;;;;2.92;1.58;;;14.40;99.90;;;;;;5058685;28;20055;-36
2023/08/27 06:58:03;;;;;;;3.97;1.90;;;14.40;99.90;;;;;;5058533;28;20056;-37
2023/08/27 07:00:29;;;;;;;4.03;2.13;;;14.40;99.90;;;;;;5067043;28;20529;-37
2023/08/27 07:02:54;;;;;;;3.88;1.92;;;14.40;99.90;;;;;;5061148;28;20044;-37
2023/08/27 07:05:20;;;;;;;3.15;1.73;;;14.40;99.90;;;;;;5039541;28;20132;-37
2023/08/27 07:07:46;;;;;;;3.28;1.52;;;14.40;99.90;;;;;;5050951;28;20067;-36
2023/08/27 07:10:12;;;;;;;3.95;1.98;;;14.50;99.90;;;;;;5063973;28;20063;-37
2023/08/27 07:12:38;;;;;;;4.00;1.92;;;14.50;99.90;;;;;;5047002;28;20049;-37
2023/08/27 07:15:05;;;;;;;3.63;1.77;;;14.50;99.90;;;;;;5047056;28;20097;-36
2023/08/27 07:17:34;;;;;;;3.40;1.83;;;14.50;99.90;;;;;;5056838;28;20110;-36
2023/08/27 07:20:00;;;;;;;3.03;1.70;;;14.50;99.90;;;;;;5050925;28;20413;-37
2023/08/27 07:22:26;;;;;;;3.33;1.73;;;14.60;99.90;;;;;;5058667;28;20436;-36
2023/08/27 07:24:52;;;;;;;5.18;2.10;;;14.60;99.90;;;;;;5062526;28;20056;-37
2023/08/27 07:27:18;;;;;;;3.10;1.40;;;14.70;99.90;;;;;;5053752;28;20045;-37
2023/08/27 07:29:44;;;;;;;2.95;1.23;;;14.80;99.90;;;;;;5066923;28;20044;-37
2023/08/27 07:32:09;;;;;;;3.90;1.60;;;14.90;99.90;;;;;;5046801;28;20496;-37
2023/08/27 07:34:35;;;;;;;4.70;1.58;;;14.90;99.90;;;;;;5065299;28;20052;-37
2023/08/27 07:37:00;;;;;;;4.05;1.75;;;15.00;99.90;;;;;;5065639;28;20139;-37
2023/08/27 07:39:26;;;;;;;4.45;1.75;;;15.10;99.90;;;;;;5058061;28;20052;-37
2023/08/27 07:41:53;;;;;;;2.45;1.60;;;15.10;99.90;;;;;;5063808;28;20059;-36
2023/08/27 07:44:19;;;;;;;4.15;1.60;;;15.20;99.90;;;;;;5066015;28;20048;-37
2023/08/27 07:46:44;;;;;;;6.00;2.03;;;15.30;99.90;;;;;;5057507;28;20051;-37
2023/08/27 07:49:10;;;;;;;4.57;1.77;;;15.30;99.90;;;;;;5053079;28;20410;-36
2023/08/27 07:51:36;;;;;;;3.35;1.70;;;15.40;99.90;;;;;;5066020;28;20359;-37
2023/08/27 07:54:02;;;;;;;4.93;1.80;;;15.50;99.90;;;;;;5064690;28;20445;-36
2023/08/27 07:56:28;;;;;;;3.13;1.80;;;15.60;99.90;;;;;;5059344;28;20056;-36
2023/08/27 07:58:53;;;;;;;3.65;2.10;;;15.70;99.90;;;;;;5062192;28;20504;-36
2023/08/27 08:01:19;;;;;;;3.80;2.05;;;15.80;99.90;;;;;;5059379;28;20478;-36
2023/08/27 08:03:45;;;;;;;3.30;2.05;;;15.90;99.90;;;;;;5066058;28;20449;-36
2023/08/27 08:06:11;;;;;;;5.13;2.00;;;16.00;99.90;;;;;;5061172;28;20064;-36
2023/08/27 08:08:36;;;;;;;3.55;2.15;;;16.10;99.90;;;;;;5066837;28;20075;-36
2023/08/27 08:11:02;;;;;;;5.15;2.63;;;16.10;99.90;;;;;;5063727;28;21291;-35
2023/08/27 08:13:28;;;;;;;5.38;2.70;;;16.20;99.90;;;;;;5064452;28;20056;-35
2023/08/27 08:15:53;;;;;;;4.05;2.53;;;16.20;99.90;;;;;;5062658;28;20067;-34
2023/08/27 08:18:19;;;;;;;5.18;3.05;;;16.30;99.90;;;;;;5054277;28;20040;-34
2023/08/27 08:20:45;;;;;;;4.55;3.10;;;16.40;99.90;;;;;;5038660;28;20045;-36
2023/08/27 08:23:11;;;;;;;4.45;2.83;;;16.40;99.90;;;;;;5043842;28;20053;-36
2023/08/27 08:25:37;;;;;;;5.13;2.88;;;16.40;99.90;;;;;;5054444;28;20044;-37
2023/08/27 08:28:06;;;;;;;6.43;3.88;;;16.50;99.90;;;;;;5063859;28;20051;-37
2023/08/27 08:30:32;;;;;;;5.32;3.42;;;16.60;99.90;;;;;;5063978;28;20056;-37
2023/08/27 08:32:58;;;;;;;7.88;3.92;;;16.70;99.90;;;;;;5063431;28;20040;-37
2023/08/27 08:35:24;;;;;;;7.10;3.50;;;16.70;99.90;;;;;;5062867;28;20498;-37
2023/08/27 08:37:49;;;;;;;7.65;4.18;;;16.80;99.90;;;;;;5058422;28;20055;-36
2023/08/27 08:40:16;;;;;;;8.18;4.15;;;16.90;99.90;;;;;;5057790;28;20379;-36
2023/08/27 08:42:59;;;;;;;7.57;3.85;;;16.90;99.90;;;;;;5059033;28;20075;-36
2023/08/27 08:45:58;;;;;;;6.43;4.40;;;17.00;99.90;;;;;;5057655;28;20125;-36
2023/08/27 08:48:30;;;;;;;6.85;4.00;;;17.10;99.90;;;;;;5017528;28;20084;-36
2023/08/27 08:50:56;;;;;;;7.13;3.78;;;17.20;99.90;;;;;;5049313;28;20048;-36
2023/08/27 08:53:25;;;;;;;7.68;4.60;;;17.30;99.90;;;;;;5056278;28;20056;-36
2023/08/27 08:55:56;;;;;;;6.78;4.35;;;17.30;99.90;;;;;;5061258;28;20225;-35
2023/08/27 08:58:29;;;;;;;8.00;4.38;;;17.50;99.90;;;;;;5053945;28;20066;-35
2023/08/27 09:00:58;;;;;;;5.57;3.72;;;17.60;99.90;;;;;;5065146;28;20056;-36
2023/08/27 09:03:26;;;;;;;5.65;2.92;;;17.70;99.90;;;;;;5063435;28;20048;-36
2023/08/27 09:05:52;;;;;;;4.63;2.53;;;17.80;99.90;;;;;;5063748;28;20037;-36
2023/08/27 09:08:19;;;;;;;3.45;2.30;;;18.00;99.90;;;;;;5060393;28;20514;-37
2023/08/27 09:10:49;;;;;;;5.07;2.50;;;18.10;99.90;;;;;;5065136;28;20402;-38
2023/08/27 09:13:20;;;;;;;4.18;2.33;;;18.10;99.90;;;;;;5063624;28;20490;-38
2023/08/27 09:15:50;;;;;;;4.28;2.50;;;18.20;99.90;;;;;;5067545;28;20041;-38
2023/08/27 09:18:16;;;;;;;3.90;2.88;;;18.40;99.90;;;;;;5063676;28;20075;-38
2023/08/27 09:20:43;;;;;;;6.22;2.80;;;18.40;99.90;;;;;;5065616;28;20106;-42
2023/08/27 09:23:09;;;;;;;4.35;3.00;;;18.40;99.90;;;;;;5058641;28;20045;-37
2023/08/27 09:25:39;;;;;;;4.13;3.10;;;18.30;99.90;;;;;;5053848;28;20043;-37
2023/08/27 09:28:06;;;;;;;5.47;3.20;;;18.30;99.90;;;;;;5059515;28;20036;-38
2023/08/27 09:30:32;;;;;;;4.75;3.40;;;18.20;99.90;;;;;;5056714;28;20812;-36
2023/08/27 09:32:58;;;;;;;7.63;3.38;;;18.10;99.90;;;;;;5061848;28;20139;-35
2023/08/27 09:35:39;;;;;;;6.55;3.80;;;18.00;99.90;;;;;;5057798;28;20139;-36
2023/08/27 09:38:05;;;;;;;5.07;3.40;;;18.00;99.90;;;;;;5066863;28;20635;-36
2023/08/27 09:40:31;;;;;;;7.80;3.72;;;18.10;99.90;;;;;;5045054;28;20053;-37
2023/08/27 09:43:26;;;;;;;7.80;3.90;;;18.20;99.90;;;;;;5068000;28;20052;-36
2023/08/27 09:45:51;;;;;;;5.97;4.15;;;18.40;99.90;;;;;;5060550;28;20067;-36
2023/08/27 09:48:25;;;;;;;6.55;3.95;;;18.50;99.90;;;;;;5060300;28;20402;-36
2023/08/27 09:51:01;;;;;;;7.60;4.18;;;18.50;99.90;;;;;;5066008;28;20109;-34
2023/08/27 09:53:28;;;;;;;9.68;5.53;;;18.30;99.90;;;;;;5060853;28;20055;-36
2023/08/27 09:55:53;;;;;;;7.80;4.45;;;18.10;99.90;;;;;;5039140;28;20052;-36
2023/08/27 09:58:26;;;;;;;6.38;4.28;;;17.90;99.90;;;;;;5059789;28;20102;-35
2023/08/27 10:01:00;;;;;;;;;;;17.70;99.90;;;;;;5057493;28;20459;-36
2023/08/27 10:03:29;;;;;;;9.65;5.10;;;17.60;99.90;;;;;;5063679;28;19924;-35
2023/08/27 10:05:55;;;;;;;8.40;4.47;;;17.70;99.90;;;;;;5063612;28;20056;-36
2023/08/27 10:08:21;;;;;;;9.85;4.15;;;17.90;99.90;;;;;;5062261;28;20418;-34
2023/08/27 10:10:47;;;;;;;5.43;3.60;;;18.30;99.90;;;;;;5056010;28;20508;-34
2023/08/27 10:13:19;;;;;;;7.30;3.90;;;18.40;99.90;;;;;;5063332;28;20399;-36
2023/08/27 10:15:46;;;;;;;6.10;3.85;;;18.50;99.90;;;;;;5059838;28;20068;-36
2023/08/27 10:18:16;;;;;;;6.15;3.88;;;18.50;99.90;;;;;;5057746;28;20045;-36
2023/08/27 10:20:42;;;;;;;7.05;3.60;;;18.50;99.90;;;;;;5039283;28;20544;-36
2023/08/27 10:23:10;;;;;;;5.50;3.60;;;18.40;99.90;;;;;;5057533;28;20051;-35
2023/08/27 10:25:37;;;;;;;8.63;4.28;;;18.50;99.90;;;;;;5055924;28;20044;-36
2023/08/27 10:28:04;;;;;;;4.70;3.30;;;18.50;99.90;;;;;;5055510;28;20044;-35
2023/08/27 10:30:31;;;;;;;6.38;3.35;;;18.50;99.90;;;;;;5054612;28;20052;-34
2023/08/27 10:32:57;;;;;;;5.05;3.35;;;18.60;99.90;;;;;;5058219;28;20076;-37
2023/08/27 10:35:23;;;;;;;6.78;3.25;;;18.80;99.90;;;;;;5060346;28;20090;-38
2023/08/27 10:37:52;;;;;;;5.57;3.38;;;19.00;99.90;;;;;;5058797;28;20059;-36
2023/08/27 10:40:18;;;;;;;4.65;3.58;;;19.30;99.90;;;;;;5057364;28;20489;-36
2023/08/27 10:42:44;;;;;;;5.15;3.40;;;19.50;99.90;;;;;;5056728;28;20528;-37
2023/08/27 10:45:19;;;;;;;5.70;3.40;;;19.50;99.90;;;;;;5059964;28;20056;-34
2023/08/27 10:48:07;;;;;;;7.72;3.00;;;19.50;99.90;;;;;;5062304;28;20049;-33
2023/08/27 10:50:55;;;;;;;5.00;3.40;;;19.40;99.90;;;;;;5063817;28;20145;-35
2023/08/27 10:53:21;;;;;;;4.18;2.78;;;19.40;99.90;;;;;;5057979;28;20555;-34
2023/08/27 10:55:50;;;;;;;4.88;3.20;;;19.40;99.90;;;;;;5061754;28;20532;-35
2023/08/27 10:58:23;;;;;;;4.72;2.60;;;19.30;99.90;;;;;;5059110;28;20483;-35
2023/08/27 11:01:12;;;;;;;5.53;3.40;;;19.30;99.90;;;;;;5067358;28;20080;-35
2023/08/27 11:03:57;;;;;;;6.03;2.95;;;19.10;99.90;;;;;;5066753;28;20044;-35
2023/08/27 11:06:44;;;;;;;3.60;2.58;;;19.00;99.90;;;;;;5054945;28;20057;-35
2023/08/27 11:09:20;;;;;;;3.45;2.17;;;18.90;99.90;;;;;;5065002;28;20059;-35
2023/08/27 11:11:52;;;;;;;5.20;2.83;;;18.90;99.90;;;;;;5051747;28;20053;-35
2023/08/27 11:14:20;;;;;;;5.05;2.83;;;18.80;99.90;;;;;;5063863;28;20049;-35
2023/08/27 11:17:03;;;;;;;2.70;2.25;;;18.80;99.90;;;;;;5071644;28;20149;-34
2023/08/27 11:19:37;;;;;;;5.03;2.65;;;18.70;99.90;;;;;;5063676;28;20101;-35
2023/08/27 11:22:13;;;;;;;3.47;2.20;;;18.70;99.90;;;;;;5052187;28;20102;-35
2023/08/27 11:24:57;;;;;;;3.92;2.33;;;18.60;99.90;;;;;;5060881;28;20106;-36
2023/08/27 11:27:25;;;;;;;3.65;2.30;;;18.60;99.90;;;;;;5066437;28;20071;-34
2023/08/27 11:29:53;;;;;;;4.82;2.60;;;18.70;99.90;;;;;;5052416;28;20092;-34
2023/08/27 11:32:20;;;;;;;5.88;3.80;;;18.70;99.90;;;;;;5056790;28;20494;-34
2023/08/27 11:34:49;;;;;;;4.75;3.40;;;18.80;99.90;;;;;;5068965;28;20075;-34
2023/08/27 11:37:17;;;;;;;5.75;3.70;;;18.80;99.90;;;;;;5050731;28;20520;-34
2023/08/27 11:39:43;;;;;;;9.65;3.28;;;19.00;99.90;;;;;;5058765;28;20493;-34
2023/08/27 11:42:14;;;;;;;1.10;0.60;;;19.30;99.90;;;;;;5056009;28;20186;-34
2023/08/27 11:45:06;;;;;;;1.45;0.60;;;19.50;99.90;;;;;;5060009;28;20060;-34
2023/08/27 11:47:32;;;;;;;0.90;0.40;;;19.50;99.90;;;;;;5063493;28;20157;-34
2023/08/27 11:49:58;;;;;;;1.60;0.50;;;19.40;99.90;;;;;;5066193;28;20075;-34
2023/08/27 11:52:24;;;;;;;1.80;0.40;;;19.30;99.90;;;;;;5065428;28;20055;-34
2023/08/27 11:54:50;;;;;;;1.70;0.43;;;19.10;99.90;;;;;;5056803;28;20053;-34
2023/08/27 11:57:16;;;;;;;0.55;0.30;;;19.00;99.90;;;;;;5064838;28;20561;-34
2023/08/27 11:59:42;;;;;;;2.13;0.40;;;18.90;99.90;;;;;;5062829;28;20054;-34
2023/08/27 12:02:11;;;;;;;1.50;0.50;;;18.80;99.90;;;;;;5062211;28;20052;-34
2023/08/27 12:04:37;;;;;;;0.85;0.40;;;18.80;99.90;;;;;;5064946;28;20486;-34
2023/08/27 12:07:05;;;;;;;1.02;0.40;;;18.90;99.90;;;;;;5066913;28;20123;-34
2023/08/27 12:09:33;;;;;;;0.60;0.30;;;19.00;99.90;;;;;;5052639;28;20056;-34
2023/08/27 12:12:10;;;;;;;0.57;0.30;;;19.00;99.90;;;;;;5061377;28;20489;-34
2023/08/27 12:14:37;;;;;;;1.23;0.32;;;19.00;99.90;;;;;;5051702;28;20125;-34
2023/08/27 12:17:07;;;;;;;0.70;0.20;;;19.20;99.90;;;;;;5063196;28;20708;-34
2023/08/27 12:19:35;;;;;;;0.95;0.30;;;19.20;99.90;;;;;;5066210;28;20048;-34
2023/08/27 12:22:01;;;;;;;0.77;0.30;;;19.30;99.90;;;;;;5060951;28;20520;-34
2023/08/27 12:24:43;;;;;;;0.73;0.40;;;19.30;99.90;;;;;;5062146;28;20564;-34
2023/08/27 12:27:14;;;;;;;0.95;0.25;;;19.30;99.90;;;;;;5051950;28;20080;-34
2023/08/27 12:29:42;;;;;;;0.73;0.30;;;19.30;99.90;;;;;;5066202;28;20167;-34
2023/08/27 12:32:18;;;;;;;0.70;0.45;;;19.30;99.90;;;;;;5054522;28;20516;-34
2023/08/27 12:34:48;;;;;;;1.73;0.70;;;19.20;99.90;;;;;;5066066;28;20063;-40
2023/08/27 12:37:17;;;;;;;2.88;0.88;;;19.10;99.90;;;;;;5052674;28;20122;-34
2023/08/27 12:39:43;;;;;;;1.80;0.80;;;19.00;99.90;;;;;;5056890;28;20056;-34
2023/08/27 12:42:10;;;;;;;2.42;1.15;;;19.00;99.90;;;;;;5052504;28;20387;-34
2023/08/27 12:44:36;;;;;;;1.05;0.65;;;19.10;99.90;;;;;;5054505;28;20517;-34
2023/08/27 12:47:06;;;;;;;2.55;1.00;;;19.00;99.90;;;;;;5060177;28;20095;-34
2023/08/27 12:49:32;;;;;;;3.83;0.90;;;18.90;99.90;;;;;;5066052;28;20162;-34